createdAt,value
2019-01-21T00:00:43.873Z,36.33
2019-01-21T00:03:16.185Z,37.30
2019-01-21T00:05:46.845Z,36.00
2019-01-21T00:08:17.469Z,35.83
2019-01-21T00:10:48.133Z,38.50
2019-01-21T00:13:18.849Z,37.07
2019-01-21T00:15:49.667Z,36.47
2019-01-21T00:18:20.402Z,37.43
2019-01-21T00:20:51.138Z,38.10
2019-01-21T00:23:21.858Z,38.90
2019-01-21T00:25:52.596Z,36.60
2019-01-21T00:28:23.165Z,36.07
2019-01-21T00:30:53.893Z,37.00
2019-01-21T00:33:24.470Z,37.57
2019-01-21T00:35:55.220Z,39.73
2019-01-21T00:38:25.945Z,34.90
2019-01-21T00:40:56.706Z,37.63
2019-01-21T00:43:27.344Z,36.60
2019-01-21T00:45:58.097Z,36.00
2019-01-21T00:48:28.808Z,35.63
2019-01-21T00:50:59.548Z,35.40
2019-01-21T00:53:30.254Z,34.87
2019-01-21T00:56:00.939Z,34.03
2019-01-21T00:58:31.661Z,35.07
2019-01-21T01:01:02.249Z,35.30
2019-01-21T01:03:33.797Z,34.70
2019-01-21T01:06:04.392Z,34.70
2019-01-21T01:08:34.961Z,34.87
2019-01-21T01:11:05.836Z,35.07
2019-01-21T01:13:36.484Z,33.70
2019-01-21T01:16:07.205Z,35.63
2019-01-21T01:18:37.948Z,34.77
2019-01-21T01:21:08.593Z,33.70
2019-01-21T01:23:39.326Z,34.27
2019-01-21T01:26:10.038Z,31.23
2019-01-21T01:28:40.766Z,32.67
2019-01-21T01:31:11.405Z,33.37
2019-01-21T01:33:41.988Z,30.50
2019-01-21T01:36:12.634Z,32.70
2019-01-21T01:38:43.360Z,32.17
2019-01-21T01:41:14.003Z,31.47
2019-01-21T01:43:44.833Z,32.47
2019-01-21T01:46:15.564Z,28.80
2019-01-21T01:48:46.622Z,30.20
2019-01-21T01:51:17.622Z,32.57
2019-01-21T01:53:48.353Z,31.00
2019-01-21T01:56:19.074Z,30.50
2019-01-21T01:58:49.814Z,30.50
2019-01-21T02:01:20.526Z,32.20
2019-01-21T02:03:51.281Z,31.40
2019-01-21T02:06:21.930Z,30.40
2019-01-21T02:08:52.657Z,29.60
2019-01-21T02:11:23.364Z,29.23
2019-01-21T02:13:54.418Z,32.00
2019-01-21T02:16:25.154Z,32.03
2019-01-21T02:18:55.813Z,30.63
2019-01-21T02:21:28.103Z,31.27
2019-01-21T02:24:05.153Z,29.27
2019-01-21T02:26:49.054Z,28.33
2019-01-21T02:29:37.021Z,29.67
2019-01-21T02:32:49.007Z,29.20
2019-01-21T02:35:28.156Z,28.50
2019-01-21T02:38:50.509Z,29.20
2019-01-21T02:41:41.992Z,28.07
2019-01-21T02:44:49.965Z,28.73
2019-01-21T02:47:46.615Z,29.77
2019-01-21T02:51:04.518Z,26.70
2019-01-21T02:53:46.982Z,28.63
2019-01-21T02:56:49.168Z,29.80
2019-01-21T03:00:22.386Z,28.90
2019-01-21T03:03:29.682Z,28.43
2019-01-21T03:06:29.098Z,27.63
2019-01-21T03:09:49.297Z,29.60
2019-01-21T03:12:50.600Z,28.47
2019-01-21T03:16:02.334Z,29.03
2019-01-21T03:19:14.347Z,31.27
2019-01-21T03:22:28.466Z,28.80
2019-01-21T03:25:39.582Z,29.60
2019-01-21T03:28:49.757Z,28.97
2019-01-21T03:32:07.443Z,28.50
2019-01-21T03:35:08.886Z,28.80
2019-01-21T03:38:31.626Z,28.57
2019-01-21T03:41:30.106Z,30.23
2019-01-21T03:44:49.634Z,28.43
2019-01-21T03:47:53.824Z,25.97
2019-01-21T03:50:45.154Z,28.30
2019-01-21T03:53:41.658Z,28.90
2019-01-21T03:56:27.514Z,28.30
2019-01-21T03:59:15.278Z,26.63
2019-01-21T04:02:42.093Z,30.50
2019-01-21T04:05:53.766Z,29.80
2019-01-21T04:08:59.756Z,28.00
2019-01-21T04:12:11.802Z,29.47
2019-01-21T04:15:15.597Z,28.23
2019-01-21T04:18:24.605Z,29.40
2019-01-21T04:21:25.387Z,28.17
2019-01-21T04:24:39.470Z,27.10
2019-01-21T04:27:41.798Z,27.70
2019-01-21T04:30:45.296Z,27.17
2019-01-21T04:34:18.592Z,26.30
2019-01-21T04:37:18.255Z,27.90
2019-01-21T04:40:16.278Z,27.30
2019-01-21T04:43:07.486Z,28.53
2019-01-21T04:46:30.488Z,28.57
2019-01-21T04:49:33.080Z,24.43
2019-01-21T04:52:53.943Z,25.90
2019-01-21T04:55:47.309Z,26.03
2019-01-21T04:59:00.411Z,25.93
2019-01-21T05:02:04.780Z,25.77
2019-01-21T05:05:28.811Z,27.53
2019-01-21T05:08:46.797Z,25.67
2019-01-21T05:12:07.460Z,26.60
2019-01-21T05:15:14.305Z,28.40
2019-01-21T05:18:09.045Z,28.47
2019-01-21T05:21:22.608Z,27.83
2019-01-21T05:24:25.505Z,27.90
2019-01-21T05:27:26.021Z,28.90
2019-01-21T05:30:29.655Z,26.83
2019-01-21T05:33:56.965Z,25.60
2019-01-21T05:37:02.005Z,28.10
2019-01-21T05:40:14.646Z,28.13
2019-01-21T05:43:03.908Z,27.33
2019-01-21T05:46:11.243Z,31.20
2019-01-21T05:49:12.251Z,34.23
2019-01-21T05:52:19.027Z,33.00
2019-01-21T05:55:36.733Z,31.07
2019-01-21T05:59:09.270Z,28.20
2019-01-21T06:02:15.944Z,28.13
2019-01-21T06:05:21.597Z,30.20
2019-01-21T06:08:29.338Z,28.10
2019-01-21T06:11:28.544Z,27.57
2019-01-21T06:14:33.333Z,27.27
2019-01-21T06:17:44.069Z,28.77
2019-01-21T06:20:48.874Z,31.30
2019-01-21T06:23:44.405Z,28.27
2019-01-21T06:27:00.812Z,27.90
2019-01-21T06:30:11.804Z,27.00
2019-01-21T06:33:36.049Z,30.90
2019-01-21T06:36:35.671Z,31.43
2019-01-21T06:40:02.389Z,29.30
2019-01-21T06:43:09.636Z,31.63
2019-01-21T06:46:23.006Z,27.70
2019-01-21T06:49:13.626Z,29.27
2019-01-21T06:52:28.310Z,26.20
2019-01-21T06:55:28.292Z,27.07
2019-01-21T06:58:28.392Z,27.27
2019-01-21T07:01:36.202Z,30.03
2019-01-21T07:04:53.983Z,26.70
2019-01-21T07:08:03.184Z,31.43
2019-01-21T07:10:41.203Z,29.70
2019-01-21T07:14:04.345Z,29.40
2019-01-21T07:17:01.483Z,28.90
2019-01-21T07:20:05.160Z,28.40
2019-01-21T07:23:12.957Z,29.30
2019-01-21T07:25:58.178Z,30.73
2019-01-21T07:29:00.814Z,30.93
2019-01-21T07:31:53.402Z,32.00
2019-01-21T07:34:51.073Z,30.50
2019-01-21T07:37:53.661Z,30.37
2019-01-21T07:41:03.613Z,31.57
2019-01-21T07:44:16.317Z,30.17
2019-01-21T07:47:35.457Z,29.53
2019-01-21T07:50:52.362Z,30.60
2019-01-21T07:54:09.693Z,33.20
2019-01-21T07:57:00.366Z,30.73
2019-01-21T08:00:39.724Z,32.33
2019-01-21T08:04:00.693Z,29.60
2019-01-21T08:06:59.336Z,29.13
2019-01-21T08:10:28.737Z,29.77
2019-01-21T08:13:22.097Z,32.43
2019-01-21T08:16:34.469Z,32.30
2019-01-21T08:19:40.018Z,31.37
2019-01-21T08:22:47.521Z,31.17
2019-01-21T08:26:11.160Z,35.80
2019-01-21T08:29:32.374Z,32.90
2019-01-21T08:32:33.518Z,31.80
2019-01-21T08:35:48.089Z,30.77
2019-01-21T08:38:35.216Z,33.40
2019-01-21T08:41:28.977Z,28.43
2019-01-21T08:44:36.806Z,28.97
2019-01-21T08:47:48.016Z,31.30
2019-01-21T08:51:09.187Z,30.50
2019-01-21T08:53:53.534Z,29.90
2019-01-21T08:56:48.674Z,30.00
2019-01-21T08:59:40.869Z,27.70
2019-01-21T09:02:28.134Z,30.40
2019-01-21T09:05:20.644Z,29.57
2019-01-21T09:08:37.681Z,30.40
2019-01-21T09:11:58.756Z,27.40
2019-01-21T09:14:51.920Z,28.87
2019-01-21T09:18:05.276Z,31.50
2019-01-21T09:21:28.336Z,27.23
2019-01-21T09:24:26.185Z,25.63
2019-01-21T09:27:49.805Z,25.87
2019-01-21T09:31:12.917Z,26.73
2019-01-21T09:34:11.515Z,26.37
2019-01-21T09:36:54.853Z,25.60
2019-01-21T09:40:08.580Z,26.00
2019-01-21T09:43:03.093Z,24.43
2019-01-21T09:46:04.943Z,24.27
2019-01-21T09:48:34.073Z,24.83
2019-01-21T09:51:06.437Z,26.33
2019-01-21T09:53:37.680Z,26.33
2019-01-21T09:56:08.349Z,27.07
2019-01-21T09:58:39.876Z,27.87
2019-01-21T10:01:10.925Z,25.70
2019-01-21T10:03:41.663Z,24.40
2019-01-21T10:06:12.801Z,26.37
2019-01-21T10:09:12.627Z,25.03
2019-01-21T10:12:25.985Z,26.60
2019-01-21T10:15:27.348Z,26.43
2019-01-21T10:18:35.532Z,26.53
2019-01-21T10:21:49.366Z,27.10
2019-01-21T10:25:12.237Z,24.97
2019-01-21T10:27:56.222Z,25.00
2019-01-21T10:31:12.771Z,26.47
2019-01-21T10:34:39.821Z,25.40
2019-01-21T10:38:10.177Z,26.27
2019-01-21T10:41:04.050Z,25.67
2019-01-21T10:43:57.743Z,24.97
2019-01-21T10:46:59.909Z,26.63
2019-01-21T10:50:09.425Z,25.27
2019-01-21T10:53:04.325Z,25.33
2019-01-21T10:56:16.040Z,28.43
2019-01-21T10:59:20.886Z,26.33
2019-01-21T11:02:22.749Z,28.63
2019-01-21T11:05:18.468Z,28.87
2019-01-21T11:08:45.287Z,26.40
2019-01-21T11:11:42.853Z,28.87
2019-01-21T11:15:11.657Z,29.33
2019-01-21T11:18:23.047Z,28.00
2019-01-21T11:21:06.452Z,29.27
2019-01-21T11:24:13.576Z,29.13
2019-01-21T11:27:27.374Z,29.43
2019-01-21T11:30:17.572Z,28.60
2019-01-21T11:33:28.325Z,30.47
2019-01-21T11:36:37.734Z,28.80
2019-01-21T11:39:28.822Z,29.87
2019-01-21T11:42:44.372Z,29.83
2019-01-21T11:45:28.479Z,29.57
2019-01-21T11:48:11.450Z,29.17
2019-01-21T11:51:19.052Z,29.50
2019-01-21T11:54:02.079Z,31.30
2019-01-21T11:56:51.053Z,32.20
2019-01-21T11:59:51.274Z,32.23
2019-01-21T12:02:44.617Z,32.97
2019-01-21T12:06:11.400Z,32.70
2019-01-21T12:09:11.950Z,33.20
2019-01-21T12:12:06.015Z,31.93
2019-01-21T12:14:58.633Z,31.40
2019-01-21T12:18:04.704Z,32.23
2019-01-21T12:21:20.485Z,33.97
2019-01-21T12:24:12.090Z,37.87
2019-01-21T12:27:32.819Z,34.63
2019-01-21T12:30:44.185Z,34.20
2019-01-21T12:34:07.134Z,41.80
2019-01-21T12:37:05.408Z,33.63
2019-01-21T12:40:26.934Z,32.80
2019-01-21T12:43:49.950Z,30.60
2019-01-21T12:46:32.292Z,29.67
2019-01-21T12:49:40.063Z,27.23
2019-01-21T12:52:25.489Z,29.60
2019-01-21T12:55:28.572Z,28.13
2019-01-21T12:58:50.813Z,28.77
2019-01-21T13:02:30.830Z,28.70
2019-01-21T13:05:49.604Z,31.47
2019-01-21T13:08:55.086Z,30.67
2019-01-21T13:11:58.044Z,32.37
2019-01-21T13:14:37.531Z,28.93
2019-01-21T13:17:39.413Z,31.73
2019-01-21T13:20:42.070Z,28.77
2019-01-21T13:23:44.685Z,30.50
2019-01-21T13:26:35.761Z,31.50
2019-01-21T13:29:18.036Z,31.00
2019-01-21T13:31:59.437Z,30.50
2019-01-21T13:35:00.094Z,32.00
2019-01-21T13:38:29.585Z,27.00
2019-01-21T13:41:17.919Z,29.20
2019-01-21T13:44:24.355Z,28.77
2019-01-21T13:47:33.409Z,30.13
2019-01-21T13:50:37.193Z,30.80
2019-01-21T13:53:37.471Z,32.83
2019-01-21T13:56:45.929Z,28.97
2019-01-21T14:00:05.354Z,30.90
2019-01-21T14:02:48.149Z,30.83
2019-01-21T14:05:53.533Z,29.50
2019-01-21T14:09:08.474Z,31.30
2019-01-21T14:12:31.373Z,29.90
2019-01-21T14:15:36.762Z,31.47
2019-01-21T14:18:47.412Z,29.77
2019-01-21T14:22:10.174Z,32.00
2019-01-21T14:25:28.005Z,30.17
2019-01-21T14:28:46.599Z,29.13
2019-01-21T14:31:50.306Z,31.47
2019-01-21T14:34:43.761Z,30.30
2019-01-21T14:37:51.315Z,33.37
2019-01-21T14:40:53.228Z,33.07
2019-01-21T14:43:55.325Z,32.40
2019-01-21T14:46:45.481Z,31.40
2019-01-21T14:49:42.030Z,31.43
2019-01-21T14:53:06.062Z,31.17
2019-01-21T14:56:08.698Z,33.07
2019-01-21T14:59:01.921Z,32.37
2019-01-21T15:01:55.940Z,29.30
2019-01-21T15:05:02.219Z,31.30
2019-01-21T15:08:09.905Z,33.77
2019-01-21T15:11:27.614Z,30.50
2019-01-21T15:14:26.080Z,31.67
2019-01-21T15:17:16.353Z,32.27
2019-01-21T15:20:12.062Z,33.43
2019-01-21T15:23:21.375Z,32.67
2019-01-21T15:26:41.556Z,31.53
2019-01-21T15:29:56.178Z,35.17
2019-01-21T15:32:50.670Z,34.13
2019-01-21T15:35:35.959Z,30.53
2019-01-21T15:38:27.600Z,34.40
2019-01-21T15:41:26.500Z,33.80
2019-01-21T15:44:31.511Z,35.87
2019-01-21T15:47:39.970Z,39.00
2019-01-21T15:50:32.976Z,32.80
2019-01-21T15:53:31.789Z,33.07
2019-01-21T15:56:10.842Z,37.00
2019-01-21T15:59:13.134Z,36.07
2019-01-21T16:01:56.611Z,35.40
2019-01-21T16:05:19.690Z,38.83
2019-01-21T16:08:06.314Z,33.33
2019-01-21T16:11:06.403Z,35.00
2019-01-21T16:13:44.909Z,32.50
2019-01-21T16:17:08.920Z,31.77
2019-01-21T16:19:49.782Z,30.83
2019-01-21T16:23:10.811Z,33.00
2019-01-21T16:26:11.818Z,33.67
2019-01-21T16:29:25.590Z,40.27
2019-01-21T16:32:13.872Z,37.87
2019-01-21T16:35:06.689Z,34.07
2019-01-21T16:38:05.057Z,36.27
2019-01-21T16:41:35.412Z,34.20
2019-01-21T16:44:06.009Z,34.23
2019-01-21T16:46:36.670Z,36.60
2019-01-21T16:49:08.019Z,46.43
2019-01-21T16:51:38.849Z,42.33
2019-01-21T16:54:09.523Z,34.90
2019-01-21T16:56:40.242Z,35.30
2019-01-21T16:59:10.976Z,35.73
2019-01-21T17:01:41.646Z,35.90
2019-01-21T17:04:12.370Z,34.80
2019-01-21T17:06:43.115Z,36.63
2019-01-21T17:09:13.857Z,37.50
2019-01-21T17:11:44.538Z,37.40
2019-01-21T17:14:15.278Z,35.90
2019-01-21T17:16:45.985Z,35.77
2019-01-21T17:19:16.580Z,35.80
2019-01-21T17:21:47.386Z,37.13
2019-01-21T17:24:18.251Z,36.87
2019-01-21T17:26:48.886Z,40.13
2019-01-21T17:29:20.002Z,38.13
2019-01-21T17:31:50.685Z,34.83
2019-01-21T17:34:21.342Z,36.80
2019-01-21T17:36:52.064Z,36.63
2019-01-21T17:39:22.793Z,38.33
2019-01-21T17:41:53.423Z,34.07
2019-01-21T17:44:24.145Z,37.03
2019-01-21T17:46:55.921Z,40.93
2019-01-21T17:49:27.712Z,41.90
2019-01-21T17:51:58.332Z,38.20
2019-01-21T17:54:34.602Z,37.90
2019-01-21T17:57:01.270Z,37.30
2019-01-21T17:59:31.953Z,36.60
2019-01-21T18:02:04.037Z,36.20
2019-01-21T18:04:35.731Z,34.60
2019-01-21T18:07:06.452Z,37.80
2019-01-21T18:09:37.154Z,35.37
2019-01-21T18:12:07.864Z,35.60
2019-01-21T18:14:38.543Z,39.13
2019-01-21T18:17:09.261Z,36.70
2019-01-21T18:19:39.922Z,35.80
2019-01-21T18:22:10.653Z,37.27
2019-01-21T18:24:41.305Z,36.17
2019-01-21T18:27:11.936Z,34.63
2019-01-21T18:29:42.641Z,35.53
2019-01-21T18:32:13.201Z,37.50
2019-01-21T18:34:43.797Z,33.33
2019-01-21T18:37:14.617Z,35.60
2019-01-21T18:39:45.365Z,36.40
2019-01-21T18:42:15.991Z,35.63
2019-01-21T18:44:46.682Z,34.90
2019-01-21T18:47:17.423Z,35.37
2019-01-21T18:49:48.234Z,39.87
2019-01-21T18:52:18.933Z,42.03
2019-01-21T18:54:49.722Z,36.40
2019-01-21T18:57:20.482Z,37.63
2019-01-21T18:59:51.221Z,37.63
2019-01-21T19:02:21.982Z,36.67
2019-01-21T19:04:52.678Z,35.70
2019-01-21T19:07:23.382Z,37.43
2019-01-21T19:09:54.143Z,35.20
2019-01-21T19:12:24.869Z,36.00
2019-01-21T19:14:55.544Z,37.10
2019-01-21T19:17:26.156Z,35.63
2019-01-21T19:19:56.836Z,33.70
2019-01-21T19:22:29.636Z,38.00
2019-01-21T19:25:01.001Z,37.90
2019-01-21T19:27:31.787Z,39.03
2019-01-21T19:30:02.586Z,37.83
2019-01-21T19:32:33.509Z,36.63
2019-01-21T19:35:05.077Z,40.50
2019-01-21T19:37:35.825Z,38.80
2019-01-21T19:40:08.384Z,39.10
2019-01-21T19:42:39.137Z,37.90
2019-01-21T19:45:10.267Z,37.47
2019-01-21T19:47:41.002Z,39.03
2019-01-21T19:50:14.064Z,37.70
2019-01-21T19:52:44.750Z,41.20
2019-01-21T19:55:19.213Z,39.70
2019-01-21T19:57:50.738Z,41.57
2019-01-21T20:00:21.881Z,40.13
2019-01-21T20:02:53.741Z,38.53
2019-01-21T20:05:24.425Z,40.27
2019-01-21T20:07:55.177Z,40.77
2019-01-21T20:10:25.935Z,38.47
2019-01-21T20:12:56.713Z,41.50
2019-01-21T20:15:27.373Z,37.97
2019-01-21T20:17:58.115Z,39.50
2019-01-21T20:20:34.234Z,39.53
2019-01-21T20:23:04.992Z,43.10
2019-01-21T20:25:35.709Z,40.00
2019-01-21T20:28:06.410Z,40.90
2019-01-21T20:30:37.145Z,40.70
2019-01-21T20:33:07.822Z,50.03
2019-01-21T20:35:38.543Z,43.00
2019-01-21T20:38:09.349Z,40.00
2019-01-21T20:40:40.058Z,39.77
2019-01-21T20:43:10.657Z,38.90
2019-01-21T20:45:41.431Z,38.83
2019-01-21T20:48:12.193Z,34.87
2019-01-21T20:50:43.077Z,38.07
2019-01-21T20:53:13.804Z,39.50
2019-01-21T20:55:44.678Z,39.03
2019-01-21T20:58:15.402Z,39.03
2019-01-21T21:00:46.307Z,39.10
2019-01-21T21:03:17.042Z,39.70
2019-01-21T21:05:47.778Z,41.40
2019-01-21T21:08:18.530Z,38.63
2019-01-21T21:10:49.173Z,39.63
2019-01-21T21:13:19.829Z,37.60
2019-01-21T21:15:50.554Z,39.30
2019-01-21T21:18:21.210Z,38.30
2019-01-21T21:20:51.862Z,36.67
2019-01-21T21:23:22.449Z,38.67
2019-01-21T21:25:53.165Z,37.30
2019-01-21T21:28:23.898Z,41.00
2019-01-21T21:30:54.805Z,38.07
2019-01-21T21:33:25.553Z,41.00
2019-01-21T21:35:56.266Z,37.80
2019-01-21T21:38:26.922Z,39.87
2019-01-21T21:40:57.649Z,38.10
2019-01-21T21:43:28.381Z,40.03
2019-01-21T21:45:59.093Z,39.30
2019-01-21T21:48:31.850Z,39.80
2019-01-21T21:51:02.177Z,40.60
2019-01-21T21:53:33.314Z,37.33
2019-01-21T21:56:04.043Z,39.63
2019-01-21T21:58:34.862Z,37.27
2019-01-21T22:01:05.633Z,41.77
2019-01-21T22:03:36.425Z,41.40
2019-01-21T22:06:07.116Z,38.07
2019-01-21T22:08:37.870Z,40.17
2019-01-21T22:11:08.617Z,38.67
2019-01-21T22:13:39.362Z,38.23
2019-01-21T22:16:10.080Z,39.00
2019-01-21T22:18:40.882Z,37.20
2019-01-21T22:21:11.601Z,40.80
2019-01-21T22:23:42.346Z,38.50
2019-01-21T22:26:13.084Z,38.53
2019-01-21T22:28:43.959Z,38.87
2019-01-21T22:31:14.972Z,37.57
2019-01-21T22:33:45.738Z,39.23
2019-01-21T22:36:16.465Z,35.70
2019-01-21T22:38:47.223Z,36.10
2019-01-21T22:41:17.955Z,37.83
2019-01-21T22:43:48.706Z,38.03
2019-01-21T22:46:19.445Z,36.47
2019-01-21T22:48:50.185Z,38.17
2019-01-21T22:51:21.213Z,39.57
2019-01-21T22:53:51.967Z,39.53
2019-01-21T22:56:22.689Z,37.43
2019-01-21T22:58:53.467Z,37.17
2019-01-21T23:01:27.493Z,37.93
2019-01-21T23:03:58.274Z,38.27
2019-01-21T23:06:29.014Z,40.40
2019-01-21T23:09:00.713Z,37.80
2019-01-21T23:11:31.501Z,38.13
2019-01-21T23:14:02.670Z,39.77
2019-01-21T23:16:33.393Z,37.80
2019-01-21T23:19:04.243Z,39.20
2019-01-21T23:21:34.958Z,40.17
2019-01-21T23:24:05.626Z,34.67
2019-01-21T23:26:36.577Z,33.17
2019-01-21T23:29:07.318Z,34.73
2019-01-21T23:31:38.047Z,36.13
2019-01-21T23:34:08.823Z,36.20
2019-01-21T23:36:39.587Z,35.50
2019-01-21T23:39:10.342Z,35.67
2019-01-21T23:41:41.110Z,39.07
2019-01-21T23:44:11.902Z,36.10
2019-01-21T23:46:42.644Z,35.10
2019-01-21T23:49:13.400Z,38.03
2019-01-21T23:51:44.542Z,38.93
2019-01-21T23:54:15.979Z,37.27
2019-01-21T23:56:47.573Z,41.00
2019-01-21T23:59:18.377Z,40.10
